sensor_id;sensor_type;location;lat;lon;timestamp;temperature;humidity
15596;DHT22;7898;48.658;9.068;2022-10-28T00:00:05;11.40;99.90
15596;DHT22;7898;48.658;9.068;2022-10-28T00:02:32;11.40;99.90
15596;DHT22;7898;48.658;9.068;2022-10-28T00:04:59;11.40;99.90
15596;DHT22;7898;48.658;9.068;2022-10-28T00:07:27;11.40;99.90
15596;DHT22;7898;48.658;9.068;2022-10-28T00:09:55;11.50;99.90
15596;DHT22;7898;48.658;9.068;2022-10-28T00:12:23;11.50;99.90
15596;DHT22;7898;48.658;9.068;2022-10-28T00:14:50;11.50;99.90
15596;DHT22;7898;48.658;9.068;2022-10-28T00:17:17;11.40;99.90
15596;DHT22;7898;48.658;9.068;2022-10-28T00:19:44;11.30;99.90
15596;DHT22;7898;48.658;9.068;2022-10-28T00:22:11;11.30;99.90
15596;DHT22;7898;48.658;9.068;2022-10-28T00:24:38;11.20;99.90
15596;DHT22;7898;48.658;9.068;2022-10-28T00:27:06;11.20;99.90
15596;DHT22;7898;48.658;9.068;2022-10-28T00:29:33;11.30;99.90
15596;DHT22;7898;48.658;9.068;2022-10-28T00:32:00;11.30;99.90
15596;DHT22;7898;48.658;9.068;2022-10-28T00:34:26;11.30;99.90
15596;DHT22;7898;48.658;9.068;2022-10-28T00:36:53;11.30;99.90
15596;DHT22;7898;48.658;9.068;2022-10-28T00:39:21;11.20;99.90
15596;DHT22;7898;48.658;9.068;2022-10-28T00:41:51;11.30;99.90
15596;DHT22;7898;48.658;9.068;2022-10-28T00:44:47;11.20;99.90
15596;DHT22;7898;48.658;9.068;2022-10-28T00:47:19;11.10;99.90
15596;DHT22;7898;48.658;9.068;2022-10-28T00:49:48;11.10;99.90
15596;DHT22;7898;48.658;9.068;2022-10-28T00:52:19;11.10;99.90
15596;DHT22;7898;48.658;9.068;2022-10-28T00:54:46;11.20;99.90
15596;DHT22;7898;48.658;9.068;2022-10-28T00:57:19;11.20;99.90
15596;DHT22;7898;48.658;9.068;2022-10-28T00:59:50;11.10;99.90
15596;DHT22;7898;48.658;9.068;2022-10-28T01:02:19;11.00;99.90
15596;DHT22;7898;48.658;9.068;2022-10-28T01:04:46;10.90;99.90
15596;DHT22;7898;48.658;9.068;2022-10-28T01:07:14;10.80;99.90
15596;DHT22;7898;48.658;9.068;2022-10-28T01:09:41;10.80;99.90
15596;DHT22;7898;48.658;9.068;2022-10-28T01:12:16;10.80;99.90
15596;DHT22;7898;48.658;9.068;2022-10-28T01:15:01;10.80;99.90
15596;DHT22;7898;48.658;9.068;2022-10-28T01:17:37;10.80;99.90
15596;DHT22;7898;48.658;9.068;2022-10-28T01:20:55;10.80;99.90
15596;DHT22;7898;48.658;9.068;2022-10-28T01:23:30;10.90;99.90
15596;DHT22;7898;48.658;9.068;2022-10-28T01:26:22;10.80;99.90
15596;DHT22;7898;48.658;9.068;2022-10-28T01:32:19;10.80;99.90
15596;DHT22;7898;48.658;9.068;2022-10-28T01:34:54;10.70;99.90
15596;DHT22;7898;48.658;9.068;2022-10-28T01:37:31;10.90;99.90
15596;DHT22;7898;48.658;9.068;2022-10-28T01:40:04;10.60;99.90
15596;DHT22;7898;48.658;9.068;2022-10-28T01:42:38;10.60;99.90
15596;DHT22;7898;48.658;9.068;2022-10-28T01:45:12;10.60;99.90
15596;DHT22;7898;48.658;9.068;2022-10-28T01:47:47;10.60;99.90
15596;DHT22;7898;48.658;9.068;2022-10-28T01:50:20;10.60;99.90
15596;DHT22;7898;48.658;9.068;2022-10-28T01:52:49;10.50;99.90
15596;DHT22;7898;48.658;9.068;2022-10-28T01:55:20;10.40;99.90
15596;DHT22;7898;48.658;9.068;2022-10-28T01:57:50;10.40;99.90
15596;DHT22;7898;48.658;9.068;2022-10-28T02:00:19;10.40;99.90
15596;DHT22;7898;48.658;9.068;2022-10-28T02:02:48;10.40;99.90
15596;DHT22;7898;48.658;9.068;2022-10-28T02:05:40;10.30;99.90
15596;DHT22;7898;48.658;9.068;2022-10-28T02:14:16;10.30;99.90
15596;DHT22;7898;48.658;9.068;2022-10-28T02:16:48;10.30;99.90
15596;DHT22;7898;48.658;9.068;2022-10-28T02:19:25;10.30;99.90
15596;DHT22;7898;48.658;9.068;2022-10-28T02:22:09;10.30;99.90
15596;DHT22;7898;48.658;9.068;2022-10-28T02:24:44;10.30;99.90
15596;DHT22;7898;48.658;9.068;2022-10-28T02:27:19;10.30;99.90
15596;DHT22;7898;48.658;9.068;2022-10-28T02:29:52;10.30;99.90
15596;DHT22;7898;48.658;9.068;2022-10-28T02:32:23;10.30;99.90
15596;DHT22;7898;48.658;9.068;2022-10-28T02:34:54;10.30;99.90
15596;DHT22;7898;48.658;9.068;2022-10-28T02:37:25;10.30;99.90
15596;DHT22;7898;48.658;9.068;2022-10-28T02:39:56;10.30;99.90
15596;DHT22;7898;48.658;9.068;2022-10-28T02:42:27;10.20;99.90
15596;DHT22;7898;48.658;9.068;2022-10-28T02:44:58;10.20;99.90
15596;DHT22;7898;48.658;9.068;2022-10-28T02:47:32;10.20;99.90
15596;DHT22;7898;48.658;9.068;2022-10-28T02:50:05;10.10;99.90
15596;DHT22;7898;48.658;9.068;2022-10-28T02:52:33;10.10;99.90
15596;DHT22;7898;48.658;9.068;2022-10-28T02:55:03;10.10;99.90
15596;DHT22;7898;48.658;9.068;2022-10-28T02:57:32;10.10;99.90
15596;DHT22;7898;48.658;9.068;2022-10-28T03:00:03;10.20;99.90
15596;DHT22;7898;48.658;9.068;2022-10-28T03:02:31;10.20;99.90
15596;DHT22;7898;48.658;9.068;2022-10-28T03:04:57;10.20;99.90
15596;DHT22;7898;48.658;9.068;2022-10-28T03:07:26;10.20;99.90
15596;DHT22;7898;48.658;9.068;2022-10-28T03:09:53;10.30;99.90
15596;DHT22;7898;48.658;9.068;2022-10-28T03:12:19;10.40;99.90
15596;DHT22;7898;48.658;9.068;2022-10-28T03:14:46;10.50;99.90
15596;DHT22;7898;48.658;9.068;2022-10-28T03:17:13;10.40;99.90
15596;DHT22;7898;48.658;9.068;2022-10-28T03:19:40;10.40;99.90
15596;DHT22;7898;48.658;9.068;2022-10-28T03:22:07;10.30;99.90
15596;DHT22;7898;48.658;9.068;2022-10-28T03:24:35;10.40;99.90
15596;DHT22;7898;48.658;9.068;2022-10-28T03:27:02;10.40;99.90
15596;DHT22;7898;48.658;9.068;2022-10-28T03:29:29;10.40;99.90
15596;DHT22;7898;48.658;9.068;2022-10-28T03:31:56;10.50;99.90
15596;DHT22;7898;48.658;9.068;2022-10-28T03:34:23;10.50;99.90
15596;DHT22;7898;48.658;9.068;2022-10-28T03:36:50;10.50;99.90
15596;DHT22;7898;48.658;9.068;2022-10-28T03:39:16;10.60;99.90
15596;DHT22;7898;48.658;9.068;2022-10-28T03:41:45;10.60;99.90
15596;DHT22;7898;48.658;9.068;2022-10-28T03:44:11;10.70;99.90
15596;DHT22;7898;48.658;9.068;2022-10-28T03:46:38;10.60;99.90
15596;DHT22;7898;48.658;9.068;2022-10-28T03:49:05;10.70;99.90
15596;DHT22;7898;48.658;9.068;2022-10-28T03:51:32;10.80;99.90
15596;DHT22;7898;48.658;9.068;2022-10-28T03:53:59;10.80;99.90
15596;DHT22;7898;48.658;9.068;2022-10-28T03:56:26;10.70;99.90
15596;DHT22;7898;48.658;9.068;2022-10-28T03:58:54;10.90;99.90
15596;DHT22;7898;48.658;9.068;2022-10-28T04:01:21;10.80;99.90
15596;DHT22;7898;48.658;9.068;2022-10-28T04:03:48;10.80;99.90
15596;DHT22;7898;48.658;9.068;2022-10-28T04:06:15;10.80;99.90
15596;DHT22;7898;48.658;9.068;2022-10-28T04:08:42;10.80;99.90
15596;DHT22;7898;48.658;9.068;2022-10-28T04:11:09;10.80;99.90
15596;DHT22;7898;48.658;9.068;2022-10-28T04:13:36;10.90;99.90
15596;DHT22;7898;48.658;9.068;2022-10-28T04:16:05;10.90;99.90
15596;DHT22;7898;48.658;9.068;2022-10-28T04:18:32;10.90;99.90
15596;DHT22;7898;48.658;9.068;2022-10-28T04:21:00;11.00;99.90
15596;DHT22;7898;48.658;9.068;2022-10-28T04:23:27;11.00;99.90
15596;DHT22;7898;48.658;9.068;2022-10-28T04:25:53;10.90;99.90
15596;DHT22;7898;48.658;9.068;2022-10-28T04:28:21;11.00;99.90
15596;DHT22;7898;48.658;9.068;2022-10-28T04:30:49;11.00;99.90
15596;DHT22;7898;48.658;9.068;2022-10-28T04:33:17;11.00;99.90
15596;DHT22;7898;48.658;9.068;2022-10-28T04:35:44;11.00;99.90
15596;DHT22;7898;48.658;9.068;2022-10-28T04:38:11;11.00;99.90
15596;DHT22;7898;48.658;9.068;2022-10-28T04:40:39;11.10;99.90
15596;DHT22;7898;48.658;9.068;2022-10-28T04:43:06;11.10;99.90
15596;DHT22;7898;48.658;9.068;2022-10-28T04:45:34;11.20;99.90
15596;DHT22;7898;48.658;9.068;2022-10-28T04:48:01;11.30;99.90
15596;DHT22;7898;48.658;9.068;2022-10-28T04:50:29;11.30;99.90
15596;DHT22;7898;48.658;9.068;2022-10-28T04:52:56;11.20;99.90
15596;DHT22;7898;48.658;9.068;2022-10-28T04:55:23;11.20;99.90
15596;DHT22;7898;48.658;9.068;2022-10-28T04:57:53;11.20;99.90
15596;DHT22;7898;48.658;9.068;2022-10-28T05:00:21;11.20;99.90
15596;DHT22;7898;48.658;9.068;2022-10-28T05:02:48;11.20;99.90
15596;DHT22;7898;48.658;9.068;2022-10-28T05:05:15;11.20;99.90
15596;DHT22;7898;48.658;9.068;2022-10-28T05:07:45;11.30;99.90
15596;DHT22;7898;48.658;9.068;2022-10-28T05:10:12;11.30;99.90
15596;DHT22;7898;48.658;9.068;2022-10-28T05:12:42;11.30;99.90
15596;DHT22;7898;48.658;9.068;2022-10-28T05:15:11;11.40;99.90
15596;DHT22;7898;48.658;9.068;2022-10-28T05:17:38;11.40;99.90
15596;DHT22;7898;48.658;9.068;2022-10-28T05:20:07;11.40;99.90
15596;DHT22;7898;48.658;9.068;2022-10-28T05:22:34;11.40;99.90
15596;DHT22;7898;48.658;9.068;2022-10-28T05:25:03;11.40;99.90
15596;DHT22;7898;48.658;9.068;2022-10-28T05:27:30;11.30;99.90
15596;DHT22;7898;48.658;9.068;2022-10-28T05:29:57;11.20;99.90
15596;DHT22;7898;48.658;9.068;2022-10-28T05:32:24;11.10;99.90
15596;DHT22;7898;48.658;9.068;2022-10-28T05:34:51;11.00;99.90
15596;DHT22;7898;48.658;9.068;2022-10-28T05:37:18;11.00;99.90
15596;DHT22;7898;48.658;9.068;2022-10-28T05:39:45;10.90;99.90
15596;DHT22;7898;48.658;9.068;2022-10-28T05:42:13;10.90;99.90
15596;DHT22;7898;48.658;9.068;2022-10-28T05:44:40;10.90;99.90
15596;DHT22;7898;48.658;9.068;2022-10-28T05:47:07;10.90;99.90
15596;DHT22;7898;48.658;9.068;2022-10-28T05:49:34;10.90;99.90
15596;DHT22;7898;48.658;9.068;2022-10-28T05:52:01;11.00;99.90
15596;DHT22;7898;48.658;9.068;2022-10-28T05:54:28;11.00;99.90
15596;DHT22;7898;48.658;9.068;2022-10-28T05:56:55;11.10;99.90
15596;DHT22;7898;48.658;9.068;2022-10-28T05:59:23;11.00;99.90
15596;DHT22;7898;48.658;9.068;2022-10-28T06:01:50;11.00;99.90
15596;DHT22;7898;48.658;9.068;2022-10-28T06:04:17;11.00;99.90
15596;DHT22;7898;48.658;9.068;2022-10-28T06:06:44;11.00;99.90
15596;DHT22;7898;48.658;9.068;2022-10-28T06:09:11;11.00;99.90
15596;DHT22;7898;48.658;9.068;2022-10-28T06:11:38;11.00;99.90
15596;DHT22;7898;48.658;9.068;2022-10-28T06:14:05;10.90;99.90
15596;DHT22;7898;48.658;9.068;2022-10-28T06:16:33;10.80;99.90
15596;DHT22;7898;48.658;9.068;2022-10-28T06:19:00;10.80;99.90
15596;DHT22;7898;48.658;9.068;2022-10-28T06:21:27;10.80;99.90
15596;DHT22;7898;48.658;9.068;2022-10-28T06:23:54;10.80;99.90
15596;DHT22;7898;48.658;9.068;2022-10-28T06:26:21;11.00;99.90
15596;DHT22;7898;48.658;9.068;2022-10-28T06:28:48;11.00;99.90
15596;DHT22;7898;48.658;9.068;2022-10-28T06:31:15;11.00;99.90
15596;DHT22;7898;48.658;9.068;2022-10-28T06:33:43;11.00;99.90
15596;DHT22;7898;48.658;9.068;2022-10-28T06:36:10;11.00;99.90
15596;DHT22;7898;48.658;9.068;2022-10-28T06:38:37;11.00;99.90
15596;DHT22;7898;48.658;9.068;2022-10-28T06:41:04;11.00;99.90
15596;DHT22;7898;48.658;9.068;2022-10-28T06:43:31;11.00;99.90
15596;DHT22;7898;48.658;9.068;2022-10-28T06:46:00;11.00;99.90
15596;DHT22;7898;48.658;9.068;2022-10-28T06:48:27;11.10;99.90
15596;DHT22;7898;48.658;9.068;2022-10-28T06:50:56;11.20;99.90
15596;DHT22;7898;48.658;9.068;2022-10-28T06:53:23;11.30;99.90
15596;DHT22;7898;48.658;9.068;2022-10-28T06:55:54;11.30;99.90
15596;DHT22;7898;48.658;9.068;2022-10-28T06:58:21;11.30;99.90
15596;DHT22;7898;48.658;9.068;2022-10-28T07:00:48;11.40;99.90
15596;DHT22;7898;48.658;9.068;2022-10-28T07:03:15;11.40;99.90
15596;DHT22;7898;48.658;9.068;2022-10-28T07:05:43;11.50;99.90
15596;DHT22;7898;48.658;9.068;2022-10-28T07:08:12;11.60;99.90
15596;DHT22;7898;48.658;9.068;2022-10-28T07:10:39;11.70;99.90
15596;DHT22;7898;48.658;9.068;2022-10-28T07:13:06;11.70;99.90
15596;DHT22;7898;48.658;9.068;2022-10-28T07:15:33;11.80;99.90
15596;DHT22;7898;48.658;9.068;2022-10-28T07:18:07;11.90;99.90
15596;DHT22;7898;48.658;9.068;2022-10-28T07:20:45;12.00;99.90
15596;DHT22;7898;48.658;9.068;2022-10-28T07:27:07;12.40;99.90
15596;DHT22;7898;48.658;9.068;2022-10-28T07:29:57;12.50;99.90
15596;DHT22;7898;48.658;9.068;2022-10-28T07:32:43;12.60;99.90
15596;DHT22;7898;48.658;9.068;2022-10-28T07:35:14;12.60;99.90
15596;DHT22;7898;48.658;9.068;2022-10-28T07:37:41;12.60;99.90
15596;DHT22;7898;48.658;9.068;2022-10-28T07:40:10;12.70;99.90
15596;DHT22;7898;48.658;9.068;2022-10-28T07:42:37;12.70;99.90
15596;DHT22;7898;48.658;9.068;2022-10-28T07:45:05;12.70;99.90
15596;DHT22;7898;48.658;9.068;2022-10-28T07:47:32;12.80;99.90
15596;DHT22;7898;48.658;9.068;2022-10-28T07:49:59;12.70;99.90
15596;DHT22;7898;48.658;9.068;2022-10-28T07:52:26;12.70;99.90
15596;DHT22;7898;48.658;9.068;2022-10-28T07:54:53;12.80;99.90
15596;DHT22;7898;48.658;9.068;2022-10-28T07:57:22;12.80;99.90
15596;DHT22;7898;48.658;9.068;2022-10-28T07:59:52;12.90;99.90
15596;DHT22;7898;48.658;9.068;2022-10-28T08:02:25;12.90;99.90
15596;DHT22;7898;48.658;9.068;2022-10-28T08:04:52;13.00;99.90
15596;DHT22;7898;48.658;9.068;2022-10-28T08:07:20;13.00;99.90
15596;DHT22;7898;48.658;9.068;2022-10-28T08:09:51;13.20;99.90
15596;DHT22;7898;48.658;9.068;2022-10-28T08:12:18;13.20;99.90
15596;DHT22;7898;48.658;9.068;2022-10-28T08:14:50;13.30;99.90
15596;DHT22;7898;48.658;9.068;2022-10-28T08:17:17;12.60;99.90
15596;DHT22;7898;48.658;9.068;2022-10-28T08:19:46;13.30;99.90
15596;DHT22;7898;48.658;9.068;2022-10-28T08:22:13;13.40;99.90
15596;DHT22;7898;48.658;9.068;2022-10-28T08:24:42;13.30;99.90
15596;DHT22;7898;48.658;9.068;2022-10-28T08:27:12;13.30;99.90
15596;DHT22;7898;48.658;9.068;2022-10-28T08:29:39;13.40;99.90
15596;DHT22;7898;48.658;9.068;2022-10-28T08:32:12;13.50;99.90
15596;DHT22;7898;48.658;9.068;2022-10-28T08:34:40;13.60;99.90
15596;DHT22;7898;48.658;9.068;2022-10-28T08:37:09;13.70;99.90
15596;DHT22;7898;48.658;9.068;2022-10-28T08:39:38;13.90;99.90
15596;DHT22;7898;48.658;9.068;2022-10-28T08:42:19;14.00;99.90
15596;DHT22;7898;48.658;9.068;2022-10-28T08:47:52;14.20;99.90
15596;DHT22;7898;48.658;9.068;2022-10-28T08:50:27;14.30;99.90
15596;DHT22;7898;48.658;9.068;2022-10-28T08:53:01;14.50;99.90
15596;DHT22;7898;48.658;9.068;2022-10-28T08:55:32;14.60;99.90
15596;DHT22;7898;48.658;9.068;2022-10-28T08:58:05;14.80;99.90
15596;DHT22;7898;48.658;9.068;2022-10-28T09:00:33;14.90;99.90
15596;DHT22;7898;48.658;9.068;2022-10-28T09:03:17;14.40;99.90
15596;DHT22;7898;48.658;9.068;2022-10-28T09:05:48;15.30;99.90
15596;DHT22;7898;48.658;9.068;2022-10-28T09:08:21;15.40;99.90
15596;DHT22;7898;48.658;9.068;2022-10-28T09:11:12;15.50;99.90
15596;DHT22;7898;48.658;9.068;2022-10-28T09:13:55;15.60;99.90
15596;DHT22;7898;48.658;9.068;2022-10-28T09:16:37;15.80;99.90
15596;DHT22;7898;48.658;9.068;2022-10-28T09:19:15;16.00;99.90
15596;DHT22;7898;48.658;9.068;2022-10-28T09:21:47;16.20;99.90
15596;DHT22;7898;48.658;9.068;2022-10-28T09:24:17;16.30;99.90
15596;DHT22;7898;48.658;9.068;2022-10-28T09:26:49;16.50;99.90
15596;DHT22;7898;48.658;9.068;2022-10-28T09:29:27;16.60;99.90
15596;DHT22;7898;48.658;9.068;2022-10-28T09:32:06;16.80;99.90
15596;DHT22;7898;48.658;9.068;2022-10-28T09:34:42;16.90;99.90
15596;DHT22;7898;48.658;9.068;2022-10-28T09:37:14;17.10;99.90
15596;DHT22;7898;48.658;9.068;2022-10-28T09:39:44;17.40;99.90
15596;DHT22;7898;48.658;9.068;2022-10-28T09:42:17;17.70;99.90
15596;DHT22;7898;48.658;9.068;2022-10-28T09:44:48;18.00;99.90
15596;DHT22;7898;48.658;9.068;2022-10-28T09:47:18;18.30;99.90
15596;DHT22;7898;48.658;9.068;2022-10-28T09:49:48;18.60;99.90
15596;DHT22;7898;48.658;9.068;2022-10-28T09:52:20;19.10;99.90
15596;DHT22;7898;48.658;9.068;2022-10-28T09:54:50;19.30;99.90
15596;DHT22;7898;48.658;9.068;2022-10-28T09:57:17;19.60;99.90
15596;DHT22;7898;48.658;9.068;2022-10-28T09:59:45;19.70;99.90
15596;DHT22;7898;48.658;9.068;2022-10-28T10:02:27;19.80;99.90
15596;DHT22;7898;48.658;9.068;2022-10-28T10:04:57;19.90;99.90
15596;DHT22;7898;48.658;9.068;2022-10-28T10:07:29;20.10;99.90
15596;DHT22;7898;48.658;9.068;2022-10-28T10:10:00;20.20;99.90
15596;DHT22;7898;48.658;9.068;2022-10-28T10:12:30;20.40;99.90
15596;DHT22;7898;48.658;9.068;2022-10-28T10:14:59;20.50;99.90
15596;DHT22;7898;48.658;9.068;2022-10-28T10:17:32;20.60;99.90
15596;DHT22;7898;48.658;9.068;2022-10-28T10:20:05;20.80;99.90
15596;DHT22;7898;48.658;9.068;2022-10-28T10:22:34;20.90;99.90
15596;DHT22;7898;48.658;9.068;2022-10-28T10:25:02;20.90;99.90
15596;DHT22;7898;48.658;9.068;2022-10-28T10:27:30;21.00;99.90
15596;DHT22;7898;48.658;9.068;2022-10-28T10:29:57;21.10;99.90
15596;DHT22;7898;48.658;9.068;2022-10-28T10:32:26;21.20;99.90
15596;DHT22;7898;48.658;9.068;2022-10-28T10:35:01;21.30;99.90
15596;DHT22;7898;48.658;9.068;2022-10-28T10:37:33;21.30;99.90
15596;DHT22;7898;48.658;9.068;2022-10-28T10:40:11;21.40;99.90
15596;DHT22;7898;48.658;9.068;2022-10-28T10:42:42;21.40;99.90
15596;DHT22;7898;48.658;9.068;2022-10-28T10:45:19;21.50;99.90
15596;DHT22;7898;48.658;9.068;2022-10-28T10:47:46;21.50;99.90
15596;DHT22;7898;48.658;9.068;2022-10-28T10:50:22;21.50;99.90
15596;DHT22;7898;48.658;9.068;2022-10-28T10:52:53;21.60;99.90
15596;DHT22;7898;48.658;9.068;2022-10-28T10:55:30;21.70;99.90
15596;DHT22;7898;48.658;9.068;2022-10-28T10:57:58;21.80;99.90
15596;DHT22;7898;48.658;9.068;2022-10-28T11:00:30;22.00;99.90
15596;DHT22;7898;48.658;9.068;2022-10-28T11:02:58;22.10;99.90
15596;DHT22;7898;48.658;9.068;2022-10-28T11:05:27;22.20;99.90
15596;DHT22;7898;48.658;9.068;2022-10-28T11:07:56;22.30;99.90
15596;DHT22;7898;48.658;9.068;2022-10-28T11:10:25;22.40;99.90
15596;DHT22;7898;48.658;9.068;2022-10-28T11:12:54;22.50;99.90
15596;DHT22;7898;48.658;9.068;2022-10-28T11:15:24;22.60;99.90
15596;DHT22;7898;48.658;9.068;2022-10-28T11:17:56;22.60;99.90
15596;DHT22;7898;48.658;9.068;2022-10-28T11:20:25;22.60;99.90
15596;DHT22;7898;48.658;9.068;2022-10-28T11:23:11;22.60;99.90
15596;DHT22;7898;48.658;9.068;2022-10-28T11:25:44;22.50;99.90
15596;DHT22;7898;48.658;9.068;2022-10-28T11:31:23;22.50;99.90
15596;DHT22;7898;48.658;9.068;2022-10-28T11:34:05;22.50;99.90
15596;DHT22;7898;48.658;9.068;2022-10-28T11:36:40;22.60;99.90
15596;DHT22;7898;48.658;9.068;2022-10-28T11:39:19;22.60;99.90
15596;DHT22;7898;48.658;9.068;2022-10-28T11:41:59;22.60;99.90
15596;DHT22;7898;48.658;9.068;2022-10-28T11:44:40;22.70;99.90
15596;DHT22;7898;48.658;9.068;2022-10-28T11:47:23;22.80;99.90
15596;DHT22;7898;48.658;9.068;2022-10-28T11:50:10;22.80;99.90
15596;DHT22;7898;48.658;9.068;2022-10-28T11:55:37;22.70;99.90
15596;DHT22;7898;48.658;9.068;2022-10-28T11:58:18;22.70;99.90
15596;DHT22;7898;48.658;9.068;2022-10-28T12:00:55;22.70;99.90
15596;DHT22;7898;48.658;9.068;2022-10-28T12:03:43;22.60;99.90
15596;DHT22;7898;48.658;9.068;2022-10-28T12:06:17;22.50;99.90
15596;DHT22;7898;48.658;9.068;2022-10-28T12:09:07;22.30;99.90
15596;DHT22;7898;48.658;9.068;2022-10-28T12:11:53;22.20;99.90
15596;DHT22;7898;48.658;9.068;2022-10-28T12:14:31;22.20;99.90
15596;DHT22;7898;48.658;9.068;2022-10-28T12:17:04;22.30;99.90
15596;DHT22;7898;48.658;9.068;2022-10-28T12:19:42;22.40;99.90
15596;DHT22;7898;48.658;9.068;2022-10-28T12:22:11;22.80;99.90
15596;DHT22;7898;48.658;9.068;2022-10-28T12:24:42;23.20;99.90
15596;DHT22;7898;48.658;9.068;2022-10-28T12:27:13;23.70;99.90
15596;DHT22;7898;48.658;9.068;2022-10-28T12:29:44;24.20;99.90
15596;DHT22;7898;48.658;9.068;2022-10-28T12:32:17;24.60;99.90
15596;DHT22;7898;48.658;9.068;2022-10-28T12:34:49;25.00;99.90
15596;DHT22;7898;48.658;9.068;2022-10-28T12:37:20;25.40;99.90
15596;DHT22;7898;48.658;9.068;2022-10-28T12:39:53;25.70;99.90
15596;DHT22;7898;48.658;9.068;2022-10-28T12:42:27;25.90;99.90
15596;DHT22;7898;48.658;9.068;2022-10-28T12:44:59;26.20;99.90
15596;DHT22;7898;48.658;9.068;2022-10-28T12:47:34;26.40;99.90
15596;DHT22;7898;48.658;9.068;2022-10-28T12:50:08;26.40;99.90
15596;DHT22;7898;48.658;9.068;2022-10-28T12:52:43;26.60;99.90
15596;DHT22;7898;48.658;9.068;2022-10-28T12:55:23;26.90;99.90
15596;DHT22;7898;48.658;9.068;2022-10-28T12:57:59;27.00;99.90
15596;DHT22;7898;48.658;9.068;2022-10-28T13:00:29;27.30;99.90
15596;DHT22;7898;48.658;9.068;2022-10-28T13:03:01;27.60;99.90
15596;DHT22;7898;48.658;9.068;2022-10-28T13:05:35;27.70;99.90
15596;DHT22;7898;48.658;9.068;2022-10-28T13:08:29;27.90;99.90
15596;DHT22;7898;48.658;9.068;2022-10-28T13:11:28;28.10;99.90
15596;DHT22;7898;48.658;9.068;2022-10-28T13:14:00;28.10;99.90
15596;DHT22;7898;48.658;9.068;2022-10-28T13:16:50;27.90;99.90
15596;DHT22;7898;48.658;9.068;2022-10-28T13:19:35;27.40;99.90
15596;DHT22;7898;48.658;9.068;2022-10-28T13:22:19;27.20;99.90
15596;DHT22;7898;48.658;9.068;2022-10-28T13:24:57;27.50;99.90
15596;DHT22;7898;48.658;9.068;2022-10-28T13:27:28;27.80;99.90
15596;DHT22;7898;48.658;9.068;2022-10-28T13:29:58;28.30;99.90
15596;DHT22;7898;48.658;9.068;2022-10-28T13:32:32;28.70;99.90
15596;DHT22;7898;48.658;9.068;2022-10-28T13:35:10;28.90;99.90
15596;DHT22;7898;48.658;9.068;2022-10-28T13:37:39;28.60;99.90
15596;DHT22;7898;48.658;9.068;2022-10-28T13:40:20;28.20;99.90
15596;DHT22;7898;48.658;9.068;2022-10-28T13:42:48;27.60;99.90
15596;DHT22;7898;48.658;9.068;2022-10-28T13:45:48;27.00;99.90
15596;DHT22;7898;48.658;9.068;2022-10-28T13:48:46;26.50;99.90
15596;DHT22;7898;48.658;9.068;2022-10-28T13:51:32;26.10;99.90
15596;DHT22;7898;48.658;9.068;2022-10-28T13:53:59;25.70;99.90
15596;DHT22;7898;48.658;9.068;2022-10-28T13:56:36;25.60;99.90
15596;DHT22;7898;48.658;9.068;2022-10-28T13:59:23;25.70;99.90
15596;DHT22;7898;48.658;9.068;2022-10-28T14:02:00;26.10;99.90
15596;DHT22;7898;48.658;9.068;2022-10-28T14:04:31;27.00;99.90
15596;DHT22;7898;48.658;9.068;2022-10-28T14:07:16;27.70;99.90
15596;DHT22;7898;48.658;9.068;2022-10-28T14:09:47;27.90;99.90
15596;DHT22;7898;48.658;9.068;2022-10-28T14:12:23;27.70;99.90
15596;DHT22;7898;48.658;9.068;2022-10-28T14:15:00;27.30;99.90
15596;DHT22;7898;48.658;9.068;2022-10-28T14:17:37;27.00;99.90
15596;DHT22;7898;48.658;9.068;2022-10-28T14:20:18;27.00;99.90
15596;DHT22;7898;48.658;9.068;2022-10-28T14:22:47;27.10;99.90
15596;DHT22;7898;48.658;9.068;2022-10-28T14:28:49;26.80;99.90
15596;DHT22;7898;48.658;9.068;2022-10-28T14:31:18;26.50;99.90
15596;DHT22;7898;48.658;9.068;2022-10-28T14:36:58;25.90;99.90
15596;DHT22;7898;48.658;9.068;2022-10-28T14:39:37;25.80;99.90
15596;DHT22;7898;48.658;9.068;2022-10-28T14:42:21;25.60;99.90
15596;DHT22;7898;48.658;9.068;2022-10-28T14:45:06;25.40;99.90
15596;DHT22;7898;48.658;9.068;2022-10-28T14:47:51;25.20;99.90
15596;DHT22;7898;48.658;9.068;2022-10-28T14:50:25;25.10;99.90
15596;DHT22;7898;48.658;9.068;2022-10-28T14:52:57;24.90;99.90
15596;DHT22;7898;48.658;9.068;2022-10-28T14:55:29;24.70;99.90
15596;DHT22;7898;48.658;9.068;2022-10-28T14:58:11;24.50;99.90
15596;DHT22;7898;48.658;9.068;2022-10-28T15:00:41;24.40;99.90
15596;DHT22;7898;48.658;9.068;2022-10-28T15:03:10;24.20;99.90
15596;DHT22;7898;48.658;9.068;2022-10-28T15:05:40;24.10;99.90
15596;DHT22;7898;48.658;9.068;2022-10-28T15:08:09;24.00;99.90
15596;DHT22;7898;48.658;9.068;2022-10-28T15:10:37;24.00;99.90
15596;DHT22;7898;48.658;9.068;2022-10-28T15:13:05;23.90;99.90
15596;DHT22;7898;48.658;9.068;2022-10-28T15:15:33;23.70;99.90
15596;DHT22;7898;48.658;9.068;2022-10-28T15:18:00;23.50;99.90
15596;DHT22;7898;48.658;9.068;2022-10-28T15:20:29;23.20;99.90
15596;DHT22;7898;48.658;9.068;2022-10-28T15:23:12;23.00;99.90
15596;DHT22;7898;48.658;9.068;2022-10-28T15:25:39;22.70;99.90
15596;DHT22;7898;48.658;9.068;2022-10-28T15:28:09;22.50;99.90
15596;DHT22;7898;48.658;9.068;2022-10-28T15:30:38;22.30;99.90
15596;DHT22;7898;48.658;9.068;2022-10-28T15:33:19;22.10;99.90
15596;DHT22;7898;48.658;9.068;2022-10-28T15:35:46;22.00;99.90
15596;DHT22;7898;48.658;9.068;2022-10-28T15:38:34;21.90;99.90
15596;DHT22;7898;48.658;9.068;2022-10-28T15:44:03;21.50;99.90
15596;DHT22;7898;48.658;9.068;2022-10-28T15:46:31;21.40;99.90
15596;DHT22;7898;48.658;9.068;2022-10-28T15:49:00;21.40;99.90
15596;DHT22;7898;48.658;9.068;2022-10-28T15:51:27;21.30;99.90
15596;DHT22;7898;48.658;9.068;2022-10-28T15:54:08;21.10;99.90
15596;DHT22;7898;48.658;9.068;2022-10-28T15:56:52;21.00;99.90
15596;DHT22;7898;48.658;9.068;2022-10-28T15:59:21;20.90;99.90
15596;DHT22;7898;48.658;9.068;2022-10-28T16:01:49;20.80;99.90
15596;DHT22;7898;48.658;9.068;2022-10-28T16:04:42;20.60;99.90
15596;DHT22;7898;48.658;9.068;2022-10-28T16:07:10;20.50;99.90
15596;DHT22;7898;48.658;9.068;2022-10-28T16:09:42;20.40;99.90
15596;DHT22;7898;48.658;9.068;2022-10-28T16:12:14;20.20;99.90
15596;DHT22;7898;48.658;9.068;2022-10-28T16:14:43;20.10;99.90
15596;DHT22;7898;48.658;9.068;2022-10-28T16:17:14;20.00;99.90
15596;DHT22;7898;48.658;9.068;2022-10-28T16:19:45;19.90;99.90
15596;DHT22;7898;48.658;9.068;2022-10-28T16:22:14;19.80;99.90
15596;DHT22;7898;48.658;9.068;2022-10-28T16:24:44;19.70;99.90
15596;DHT22;7898;48.658;9.068;2022-10-28T16:27:17;19.60;99.90
15596;DHT22;7898;48.658;9.068;2022-10-28T16:29:44;19.50;99.90
15596;DHT22;7898;48.658;9.068;2022-10-28T16:32:13;19.40;99.90
15596;DHT22;7898;48.658;9.068;2022-10-28T16:34:40;19.40;99.90
15596;DHT22;7898;48.658;9.068;2022-10-28T16:37:19;19.30;99.90
15596;DHT22;7898;48.658;9.068;2022-10-28T16:39:48;19.30;99.90
15596;DHT22;7898;48.658;9.068;2022-10-28T16:42:16;19.20;99.90
15596;DHT22;7898;48.658;9.068;2022-10-28T16:44:43;19.20;99.90